sensor_id;sensor_type;location;lat;lon;timestamp;pressure;altitude;pressure_sealevel;temperature
42197;BMP280;27866;48.146;17.098;2024-02-28T00:01:50;99470.91;;;16.78
42197;BMP280;27866;48.146;17.098;2024-02-28T00:06:02;99471.75;;;16.79
42197;BMP280;27866;48.146;17.098;2024-02-28T00:10:14;99474.22;;;16.80
42197;BMP280;27866;48.146;17.098;2024-02-28T00:14:25;99465.44;;;16.81
42197;BMP280;27866;48.146;17.098;2024-02-28T00:18:37;99472.28;;;16.82
42197;BMP280;27866;48.146;17.098;2024-02-28T00:22:48;99471.75;;;16.79
42197;BMP280;27866;48.146;17.098;2024-02-28T00:27:00;99466.78;;;16.76
42197;BMP280;27866;48.146;17.098;2024-02-28T00:31:12;99468.47;;;16.77
42197;BMP280;27866;48.146;17.098;2024-02-28T00:35:23;99463.22;;;16.77
42197;BMP280;27866;48.146;17.098;2024-02-28T00:39:34;99461.56;;;16.76
42197;BMP280;27866;48.146;17.098;2024-02-28T00:43:46;99457.31;;;16.75
42197;BMP280;27866;48.146;17.098;2024-02-28T00:47:57;99455.81;;;16.72
42197;BMP280;27866;48.146;17.098;2024-02-28T00:52:09;99462.47;;;16.67
42197;BMP280;27866;48.146;17.098;2024-02-28T00:56:21;99458.50;;;16.63
42197;BMP280;27866;48.146;17.098;2024-02-28T01:00:32;99462.78;;;16.64
42197;BMP280;27866;48.146;17.098;2024-02-28T01:04:44;99462.47;;;16.67
42197;BMP280;27866;48.146;17.098;2024-02-28T01:08:55;99461.66;;;16.67
42197;BMP280;27866;48.146;17.098;2024-02-28T01:13:07;99464.72;;;16.62
42197;BMP280;27866;48.146;17.098;2024-02-28T01:17:18;99479.34;;;16.55
42197;BMP280;27866;48.146;17.098;2024-02-28T01:21:30;99474.69;;;16.50
42197;BMP280;27866;48.146;17.098;2024-02-28T01:25:41;99469.47;;;16.50
42197;BMP280;27866;48.146;17.098;2024-02-28T01:29:53;99468.88;;;16.55
42197;BMP280;27866;48.146;17.098;2024-02-28T01:34:05;99470.53;;;16.56
42197;BMP280;27866;48.146;17.098;2024-02-28T01:38:16;99463.66;;;16.55
42197;BMP280;27866;48.146;17.098;2024-02-28T01:42:28;99462.63;;;16.49
42197;BMP280;27866;48.146;17.098;2024-02-28T01:46:41;99463.19;;;16.43
42197;BMP280;27866;48.146;17.098;2024-02-28T01:50:53;99467.59;;;16.42
42197;BMP280;27866;48.146;17.098;2024-02-28T01:55:05;99448.47;;;16.42
42197;BMP280;27866;48.146;17.098;2024-02-28T01:59:18;99463.34;;;16.41
42197;BMP280;27866;48.146;17.098;2024-02-28T02:03:30;99463.56;;;16.48
42197;BMP280;27866;48.146;17.098;2024-02-28T02:07:41;99466.28;;;16.55
42197;BMP280;27866;48.146;17.098;2024-02-28T02:11:53;99467.34;;;16.62
42197;BMP280;27866;48.146;17.098;2024-02-28T02:16:05;99473.75;;;16.67
42197;BMP280;27866;48.146;17.098;2024-02-28T02:20:17;99476.53;;;16.66
42197;BMP280;27866;48.146;17.098;2024-02-28T02:24:31;99470.75;;;16.63
42197;BMP280;27866;48.146;17.098;2024-02-28T02:28:42;99479.56;;;16.62
42197;BMP280;27866;48.146;17.098;2024-02-28T02:32:54;99467.19;;;16.64
42197;BMP280;27866;48.146;17.098;2024-02-28T02:37:05;99484.13;;;16.60
42197;BMP280;27866;48.146;17.098;2024-02-28T02:41:20;99472.56;;;16.62
42197;BMP280;27866;48.146;17.098;2024-02-28T02:45:31;99483.53;;;16.66
42197;BMP280;27866;48.146;17.098;2024-02-28T02:49:42;99474.88;;;16.65
42197;BMP280;27866;48.146;17.098;2024-02-28T02:53:54;99484.22;;;16.67
42197;BMP280;27866;48.146;17.098;2024-02-28T02:58:06;99484.75;;;16.71
42197;BMP280;27866;48.146;17.098;2024-02-28T03:02:17;99488.97;;;16.72
42197;BMP280;27866;48.146;17.098;2024-02-28T03:06:28;99480.19;;;16.73
42197;BMP280;27866;48.146;17.098;2024-02-28T03:10:40;99491.75;;;16.70
42197;BMP280;27866;48.146;17.098;2024-02-28T03:14:52;99496.47;;;16.67
42197;BMP280;27866;48.146;17.098;2024-02-28T03:19:03;99500.72;;;16.68
42197;BMP280;27866;48.146;17.098;2024-02-28T03:23:15;99507.59;;;16.69
42197;BMP280;27866;48.146;17.098;2024-02-28T03:27:27;99507.22;;;16.64
42197;BMP280;27866;48.146;17.098;2024-02-28T03:31:38;99515.66;;;16.58
42197;BMP280;27866;48.146;17.098;2024-02-28T03:35:50;99507.13;;;16.56
42197;BMP280;27866;48.146;17.098;2024-02-28T03:40:02;99515.78;;;16.57
42197;BMP280;27866;48.146;17.098;2024-02-28T03:44:13;99517.59;;;16.56
42197;BMP280;27866;48.146;17.098;2024-02-28T03:48:25;99520.22;;;16.56
42197;BMP280;27866;48.146;17.098;2024-02-28T03:52:37;99512.06;;;16.59
42197;BMP280;27866;48.146;17.098;2024-02-28T03:56:48;99517.00;;;16.62
42197;BMP280;27866;48.146;17.098;2024-02-28T04:01:00;99511.22;;;16.59
42197;BMP280;27866;48.146;17.098;2024-02-28T04:05:11;99524.03;;;16.62
42197;BMP280;27866;48.146;17.098;2024-02-28T04:09:23;99523.19;;;16.61
42197;BMP280;27866;48.146;17.098;2024-02-28T04:13:35;99521.84;;;16.57
42197;BMP280;27866;48.146;17.098;2024-02-28T04:17:46;99521.16;;;16.55
42197;BMP280;27866;48.146;17.098;2024-02-28T04:21:57;99534.22;;;16.55
42197;BMP280;27866;48.146;17.098;2024-02-28T04:26:09;99528.06;;;16.56
42197;BMP280;27866;48.146;17.098;2024-02-28T04:30:20;99525.19;;;16.50
42197;BMP280;27866;48.146;17.098;2024-02-28T04:34:32;99539.53;;;16.46
42197;BMP280;27866;48.146;17.098;2024-02-28T04:38:43;99550.41;;;16.42
42197;BMP280;27866;48.146;17.098;2024-02-28T04:42:55;99537.09;;;16.36
42197;BMP280;27866;48.146;17.098;2024-02-28T04:47:06;99544.13;;;16.35
42197;BMP280;27866;48.146;17.098;2024-02-28T04:51:18;99539.72;;;16.36
42197;BMP280;27866;48.146;17.098;2024-02-28T04:55:30;99539.16;;;16.32
42197;BMP280;27866;48.146;17.098;2024-02-28T04:59:43;99541.09;;;16.30
42197;BMP280;27866;48.146;17.098;2024-02-28T05:03:55;99545.00;;;16.26
42197;BMP280;27866;48.146;17.098;2024-02-28T05:08:06;99543.84;;;16.29
42197;BMP280;27866;48.146;17.098;2024-02-28T05:12:18;99542.22;;;16.28
42197;BMP280;27866;48.146;17.098;2024-02-28T05:16:29;99551.16;;;16.25
42197;BMP280;27866;48.146;17.098;2024-02-28T05:20:41;99552.84;;;16.26
42197;BMP280;27866;48.146;17.098;2024-02-28T05:24:52;99558.06;;;16.26
42197;BMP280;27866;48.146;17.098;2024-02-28T05:29:05;99561.47;;;16.27
42197;BMP280;27866;48.146;17.098;2024-02-28T05:33:17;99560.66;;;16.26
42197;BMP280;27866;48.146;17.098;2024-02-28T05:37:29;99564.75;;;16.29
42197;BMP280;27866;48.146;17.098;2024-02-28T05:41:40;99569.19;;;16.28
42197;BMP280;27866;48.146;17.098;2024-02-28T05:45:52;99577.97;;;16.27
42197;BMP280;27866;48.146;17.098;2024-02-28T05:50:04;99571.81;;;16.28
42197;BMP280;27866;48.146;17.098;2024-02-28T05:54:16;99589.78;;;16.31
42197;BMP280;27866;48.146;17.098;2024-02-28T05:58:28;99587.88;;;16.33
42197;BMP280;27866;48.146;17.098;2024-02-28T06:02:40;99594.59;;;16.36
42197;BMP280;27866;48.146;17.098;2024-02-28T06:06:51;99594.44;;;16.37
42197;BMP280;27866;48.146;17.098;2024-02-28T06:11:03;99597.88;;;16.38
42197;BMP280;27866;48.146;17.098;2024-02-28T06:15:15;99617.09;;;16.46
42197;BMP280;27866;48.146;17.098;2024-02-28T06:19:27;99627.56;;;16.46
42197;BMP280;27866;48.146;17.098;2024-02-28T06:23:39;99624.13;;;16.45
42197;BMP280;27866;48.146;17.098;2024-02-28T06:27:50;99630.84;;;16.48
42197;BMP280;27866;48.146;17.098;2024-02-28T06:32:02;99638.25;;;16.52
42197;BMP280;27866;48.146;17.098;2024-02-28T06:36:14;99645.69;;;16.56
42197;BMP280;27866;48.146;17.098;2024-02-28T06:40:25;99640.56;;;16.64
42197;BMP280;27866;48.146;17.098;2024-02-28T06:44:37;99644.50;;;16.77
42197;BMP280;27866;48.146;17.098;2024-02-28T06:48:48;99654.72;;;16.97
42197;BMP280;27866;48.146;17.098;2024-02-28T06:53:00;99663.91;;;17.27
42197;BMP280;27866;48.146;17.098;2024-02-28T06:57:11;99676.34;;;18.27
42197;BMP280;27866;48.146;17.098;2024-02-28T07:01:24;99670.63;;;19.76
42197;BMP280;27866;48.146;17.098;2024-02-28T07:05:35;99668.09;;;20.75
42197;BMP280;27866;48.146;17.098;2024-02-28T07:09:47;99681.81;;;20.24
42197;BMP280;27866;48.146;17.098;2024-02-28T07:13:58;99681.09;;;19.53
42197;BMP280;27866;48.146;17.098;2024-02-28T07:18:13;99690.94;;;19.11
42197;BMP280;27866;48.146;17.098;2024-02-28T07:22:24;99689.94;;;19.04
42197;BMP280;27866;48.146;17.098;2024-02-28T07:26:36;99686.97;;;19.07
42197;BMP280;27866;48.146;17.098;2024-02-28T07:30:48;99702.69;;;18.99
42197;BMP280;27866;48.146;17.098;2024-02-28T07:34:59;99696.66;;;18.74
42197;BMP280;27866;48.146;17.098;2024-02-28T07:39:11;99710.78;;;18.56
42197;BMP280;27866;48.146;17.098;2024-02-28T07:43:24;99707.72;;;18.60
42197;BMP280;27866;48.146;17.098;2024-02-28T07:47:35;99714.19;;;18.49
42197;BMP280;27866;48.146;17.098;2024-02-28T07:51:47;99719.78;;;18.54
42197;BMP280;27866;48.146;17.098;2024-02-28T07:55:58;99717.69;;;18.82
42197;BMP280;27866;48.146;17.098;2024-02-28T08:00:13;99739.22;;;18.60
42197;BMP280;27866;48.146;17.098;2024-02-28T08:04:27;99732.34;;;18.26
42197;BMP280;27866;48.146;17.098;2024-02-28T08:08:45;99732.28;;;18.01
42197;BMP280;27866;48.146;17.098;2024-02-28T08:12:57;99742.53;;;17.78
42197;BMP280;27866;48.146;17.098;2024-02-28T08:17:09;99734.88;;;17.67
42197;BMP280;27866;48.146;17.098;2024-02-28T08:21:20;99749.00;;;17.83
42197;BMP280;27866;48.146;17.098;2024-02-28T08:25:32;99758.13;;;17.79
42197;BMP280;27866;48.146;17.098;2024-02-28T08:29:44;99765.69;;;17.82
42197;BMP280;27866;48.146;17.098;2024-02-28T08:33:56;99767.78;;;17.96
42197;BMP280;27866;48.146;17.098;2024-02-28T08:38:08;99770.75;;;18.17
42197;BMP280;27866;48.146;17.098;2024-02-28T08:42:19;99777.94;;;18.15
42197;BMP280;27866;48.146;17.098;2024-02-28T08:46:31;99779.09;;;18.30
42197;BMP280;27866;48.146;17.098;2024-02-28T08:50:43;99781.09;;;18.36
42197;BMP280;27866;48.146;17.098;2024-02-28T08:54:55;99783.22;;;18.32
42197;BMP280;27866;48.146;17.098;2024-02-28T08:59:06;99790.16;;;18.41
42197;BMP280;27866;48.146;17.098;2024-02-28T09:03:18;99788.78;;;18.71
42197;BMP280;27866;48.146;17.098;2024-02-28T09:07:30;99797.44;;;18.64
42197;BMP280;27866;48.146;17.098;2024-02-28T09:11:42;99799.66;;;18.42
42197;BMP280;27866;48.146;17.098;2024-02-28T09:15:53;99803.31;;;18.83
42197;BMP280;27866;48.146;17.098;2024-02-28T09:20:05;99804.53;;;18.96
42197;BMP280;27866;48.146;17.098;2024-02-28T09:24:17;99811.72;;;19.18
42197;BMP280;27866;48.146;17.098;2024-02-28T09:28:29;99814.53;;;19.17
42197;BMP280;27866;48.146;17.098;2024-02-28T09:32:41;99816.66;;;19.21
42197;BMP280;27866;48.146;17.098;2024-02-28T09:36:54;99827.06;;;19.30
42197;BMP280;27866;48.146;17.098;2024-02-28T09:41:06;99815.94;;;19.69
42197;BMP280;27866;48.146;17.098;2024-02-28T09:45:18;99816.09;;;19.67
42197;BMP280;27866;48.146;17.098;2024-02-28T09:49:32;99814.47;;;19.66
42197;BMP280;27866;48.146;17.098;2024-02-28T09:53:43;99821.91;;;19.86
42197;BMP280;27866;48.146;17.098;2024-02-28T09:57:55;99816.25;;;20.14
42197;BMP280;27866;48.146;17.098;2024-02-28T10:02:10;99835.44;;;20.14
42197;BMP280;27866;48.146;17.098;2024-02-28T10:06:22;99829.25;;;19.75
42197;BMP280;27866;48.146;17.098;2024-02-28T10:10:37;99834.00;;;19.64
42197;BMP280;27866;48.146;17.098;2024-02-28T10:14:52;99831.72;;;19.76
42197;BMP280;27866;48.146;17.098;2024-02-28T10:19:05;99835.69;;;19.80
42197;BMP280;27866;48.146;17.098;2024-02-28T10:23:17;99843.75;;;19.87
42197;BMP280;27866;48.146;17.098;2024-02-28T10:27:31;99841.31;;;19.85
42197;BMP280;27866;48.146;17.098;2024-02-28T10:31:43;99841.63;;;19.90
42197;BMP280;27866;48.146;17.098;2024-02-28T10:35:56;99847.56;;;19.92
42197;BMP280;27866;48.146;17.098;2024-02-28T10:40:09;99845.06;;;20.31
42197;BMP280;27866;48.146;17.098;2024-02-28T10:44:21;99837.19;;;20.77
42197;BMP280;27866;48.146;17.098;2024-02-28T10:48:33;99839.50;;;21.11
42197;BMP280;27866;48.146;17.098;2024-02-28T10:52:45;99833.50;;;21.40
42197;BMP280;27866;48.146;17.098;2024-02-28T10:57:07;99829.06;;;22.15
42197;BMP280;27866;48.146;17.098;2024-02-28T11:01:20;99831.31;;;22.25
42197;BMP280;27866;48.146;17.098;2024-02-28T11:05:40;99834.72;;;22.77
42197;BMP280;27866;48.146;17.098;2024-02-28T11:09:55;99832.66;;;23.23
42197;BMP280;27866;48.146;17.098;2024-02-28T11:14:15;99825.28;;;23.18
42197;BMP280;27866;48.146;17.098;2024-02-28T11:18:27;99818.38;;;23.45
42197;BMP280;27866;48.146;17.098;2024-02-28T11:22:39;99823.13;;;23.50
42197;BMP280;27866;48.146;17.098;2024-02-28T11:26:52;99824.88;;;23.07
42197;BMP280;27866;48.146;17.098;2024-02-28T11:31:04;99816.16;;;22.49
42197;BMP280;27866;48.146;17.098;2024-02-28T11:35:15;99816.28;;;23.05
42197;BMP280;27866;48.146;17.098;2024-02-28T11:39:27;99817.50;;;24.96
42197;BMP280;27866;48.146;17.098;2024-02-28T11:43:40;99791.19;;;25.48
42197;BMP280;27866;48.146;17.098;2024-02-28T11:47:52;99798.97;;;24.15
42197;BMP280;27866;48.146;17.098;2024-02-28T11:52:04;99802.31;;;23.61
42197;BMP280;27866;48.146;17.098;2024-02-28T11:56:16;99797.16;;;25.95
42197;BMP280;27866;48.146;17.098;2024-02-28T12:00:32;99795.50;;;27.40
42197;BMP280;27866;48.146;17.098;2024-02-28T12:04:45;99778.31;;;28.47
42197;BMP280;27866;48.146;17.098;2024-02-28T12:08:57;99780.31;;;29.05
42197;BMP280;27866;48.146;17.098;2024-02-28T12:13:08;99769.53;;;29.76
42197;BMP280;27866;48.146;17.098;2024-02-28T12:17:20;99762.16;;;30.23
42197;BMP280;27866;48.146;17.098;2024-02-28T12:21:32;99769.88;;;29.68
42197;BMP280;27866;48.146;17.098;2024-02-28T12:25:43;99764.56;;;29.96
42197;BMP280;27866;48.146;17.098;2024-02-28T12:29:55;99763.50;;;30.15
42197;BMP280;27866;48.146;17.098;2024-02-28T12:34:06;99765.41;;;30.54
42197;BMP280;27866;48.146;17.098;2024-02-28T12:38:21;99758.88;;;30.79
42197;BMP280;27866;48.146;17.098;2024-02-28T12:42:35;99766.22;;;30.54
42197;BMP280;27866;48.146;17.098;2024-02-28T12:46:47;99759.56;;;29.71
42197;BMP280;27866;48.146;17.098;2024-02-28T12:50:59;99762.75;;;28.74
42197;BMP280;27866;48.146;17.098;2024-02-28T12:55:11;99755.53;;;28.20
42197;BMP280;27866;48.146;17.098;2024-02-28T12:59:25;99754.59;;;28.39
42197;BMP280;27866;48.146;17.098;2024-02-28T13:03:37;99747.22;;;29.36
42197;BMP280;27866;48.146;17.098;2024-02-28T13:07:48;99747.34;;;29.93
42197;BMP280;27866;48.146;17.098;2024-02-28T13:12:00;99760.53;;;29.53
42197;BMP280;27866;48.146;17.098;2024-02-28T13:16:13;99753.81;;;29.33
42197;BMP280;27866;48.146;17.098;2024-02-28T13:20:25;99756.13;;;28.82
42197;BMP280;27866;48.146;17.098;2024-02-28T13:24:36;99762.13;;;28.42
42197;BMP280;27866;48.146;17.098;2024-02-28T13:28:48;99764.03;;;28.35
42197;BMP280;27866;48.146;17.098;2024-02-28T13:33:00;99750.31;;;27.95
42197;BMP280;27866;48.146;17.098;2024-02-28T13:37:12;99754.19;;;27.50
42197;BMP280;27866;48.146;17.098;2024-02-28T13:41:23;99750.13;;;26.41
42197;BMP280;27866;48.146;17.098;2024-02-28T13:45:38;99752.78;;;26.41
42197;BMP280;27866;48.146;17.098;2024-02-28T13:49:54;99756.28;;;26.79
42197;BMP280;27866;48.146;17.098;2024-02-28T13:54:05;99757.88;;;26.36
42197;BMP280;27866;48.146;17.098;2024-02-28T13:58:17;99755.09;;;25.92
42197;BMP280;27866;48.146;17.098;2024-02-28T14:02:29;99755.09;;;25.86
42197;BMP280;27866;48.146;17.098;2024-02-28T14:06:41;99760.16;;;25.75
42197;BMP280;27866;48.146;17.098;2024-02-28T14:10:52;99765.56;;;25.22
42197;BMP280;27866;48.146;17.098;2024-02-28T14:15:07;99768.22;;;24.14
42197;BMP280;27866;48.146;17.098;2024-02-28T14:19:19;99772.16;;;23.55
42197;BMP280;27866;48.146;17.098;2024-02-28T14:23:30;99779.38;;;22.97
42197;BMP280;27866;48.146;17.098;2024-02-28T14:27:45;99774.25;;;22.24
42197;BMP280;27866;48.146;17.098;2024-02-28T14:31:57;99773.28;;;21.74
42197;BMP280;27866;48.146;17.098;2024-02-28T14:36:08;99782.09;;;21.44
42197;BMP280;27866;48.146;17.098;2024-02-28T14:40:20;99787.81;;;21.10
42197;BMP280;27866;48.146;17.098;2024-02-28T14:44:31;99790.66;;;20.62
42197;BMP280;27866;48.146;17.098;2024-02-28T14:48:43;99801.50;;;20.28
42197;BMP280;27866;48.146;17.098;2024-02-28T14:52:56;99811.38;;;19.86
42197;BMP280;27866;48.146;17.098;2024-02-28T14:57:07;99822.53;;;19.40
42197;BMP280;27866;48.146;17.098;2024-02-28T15:01:19;99822.75;;;18.97
42197;BMP280;27866;48.146;17.098;2024-02-28T15:05:31;99833.44;;;18.79
42197;BMP280;27866;48.146;17.098;2024-02-28T15:09:42;99826.56;;;18.61
42197;BMP280;27866;48.146;17.098;2024-02-28T15:13:54;99835.94;;;18.46
42197;BMP280;27866;48.146;17.098;2024-02-28T15:18:05;99833.63;;;18.27
42197;BMP280;27866;48.146;17.098;2024-02-28T15:22:17;99840.56;;;18.18
42197;BMP280;27866;48.146;17.098;2024-02-28T15:26:30;99856.81;;;18.22
42197;BMP280;27866;48.146;17.098;2024-02-28T15:30:42;99857.41;;;18.16
42197;BMP280;27866;48.146;17.098;2024-02-28T15:34:53;99856.53;;;18.08
42197;BMP280;27866;48.146;17.098;2024-02-28T15:39:05;99856.56;;;17.98
42197;BMP280;27866;48.146;17.098;2024-02-28T15:43:18;99856.88;;;17.96
42197;BMP280;27866;48.146;17.098;2024-02-28T15:47:29;99858.13;;;17.92
42197;BMP280;27866;48.146;17.098;2024-02-28T15:51:41;99857.66;;;17.79
42197;BMP280;27866;48.146;17.098;2024-02-28T15:55:52;99870.69;;;17.53
42197;BMP280;27866;48.146;17.098;2024-02-28T16:00:05;99864.47;;;17.28
42197;BMP280;27866;48.146;17.098;2024-02-28T16:04:23;99870.03;;;17.07
42197;BMP280;27866;48.146;17.098;2024-02-28T16:08:40;99875.56;;;16.95
42197;BMP280;27866;48.146;17.098;2024-02-28T16:12:55;99873.66;;;16.78
42197;BMP280;27866;48.146;17.098;2024-02-28T16:17:06;99874.22;;;16.63
42197;BMP280;27866;48.146;17.098;2024-02-28T16:21:18;99888.94;;;16.46
42197;BMP280;27866;48.146;17.098;2024-02-28T16:25:29;99881.78;;;16.29
42197;BMP280;27866;48.146;17.098;2024-02-28T16:29:41;99900.47;;;16.16
42197;BMP280;27866;48.146;17.098;2024-02-28T16:33:53;99905.81;;;16.05
42197;BMP280;27866;48.146;17.098;2024-02-28T16:38:04;99914.72;;;15.94
42197;BMP280;27866;48.146;17.098;2024-02-28T16:42:16;99922.00;;;15.90
42197;BMP280;27866;48.146;17.098;2024-02-28T16:46:27;99924.56;;;15.81
42197;BMP280;27866;48.146;17.098;2024-02-28T16:50:39;99929.59;;;15.73
42197;BMP280;27866;48.146;17.098;2024-02-28T16:54:51;99929.97;;;15.60
42197;BMP280;27866;48.146;17.098;2024-02-28T16:59:02;99935.84;;;15.52
42197;BMP280;27866;48.146;17.098;2024-02-28T17:03:14;99943.16;;;15.38
42197;BMP280;27866;48.146;17.098;2024-02-28T17:07:25;99944.31;;;15.25
42197;BMP280;27866;48.146;17.098;2024-02-28T17:11:37;99943.06;;;15.20
42197;BMP280;27866;48.146;17.098;2024-02-28T17:15:48;99943.59;;;15.14
42197;BMP280;27866;48.146;17.098;2024-02-28T17:20:05;99944.22;;;15.07
42197;BMP280;27866;48.146;17.098;2024-02-28T17:24:18;99945.56;;;15.02
42197;BMP280;27866;48.146;17.098;2024-02-28T17:28:30;99956.56;;;15.05
42197;BMP280;27866;48.146;17.098;2024-02-28T17:32:41;99947.34;;;15.01
42197;BMP280;27866;48.146;17.098;2024-02-28T17:36:53;99947.28;;;14.92
42197;BMP280;27866;48.146;17.098;2024-02-28T17:41:04;99962.31;;;14.89
42197;BMP280;27866;48.146;17.098;2024-02-28T17:45:17;99953.94;;;14.85
42197;BMP280;27866;48.146;17.098;2024-02-28T17:49:29;99951.09;;;14.77
42197;BMP280;27866;48.146;17.098;2024-02-28T17:53:40;99949.94;;;14.71
42197;BMP280;27866;48.146;17.098;2024-02-28T17:57:52;99947.84;;;14.65
42197;BMP280;27866;48.146;17.098;2024-02-28T18:02:03;99958.53;;;14.62
42197;BMP280;27866;48.146;17.098;2024-02-28T18:06:15;99950.72;;;14.62
42197;BMP280;27866;48.146;17.098;2024-02-28T18:10:27;99957.34;;;14.55
42197;BMP280;27866;48.146;17.098;2024-02-28T18:14:38;99955.09;;;14.51
42197;BMP280;27866;48.146;17.098;2024-02-28T18:18:50;99952.63;;;14.49
42197;BMP280;27866;48.146;17.098;2024-02-28T18:23:01;99958.09;;;14.47
42197;BMP280;27866;48.146;17.098;2024-02-28T18:27:14;99959.03;;;14.46
42197;BMP280;27866;48.146;17.098;2024-02-28T18:31:25;99959.28;;;14.43
42197;BMP280;27866;48.146;17.098;2024-02-28T18:35:37;99955.28;;;14.39
42197;BMP280;27866;48.146;17.098;2024-02-28T18:39:48;99960.50;;;14.39
42197;BMP280;27866;48.146;17.098;2024-02-28T18:44:00;99963.81;;;14.41
42197;BMP280;27866;48.146;17.098;2024-02-28T18:48:13;99974.81;;;14.44
42197;BMP280;27866;48.146;17.098;2024-02-28T18:52:24;99977.53;;;14.43
42197;BMP280;27866;48.146;17.098;2024-02-28T18:56:36;99983.94;;;14.39
42197;BMP280;27866;48.146;17.098;2024-02-28T19:00:47;99984.16;;;14.36
42197;BMP280;27866;48.146;17.098;2024-02-28T19:04:59;99993.78;;;14.35
42197;BMP280;27866;48.146;17.098;2024-02-28T19:09:10;99998.28;;;14.34
42197;BMP280;27866;48.146;17.098;2024-02-28T19:13:22;99994.13;;;14.31
42197;BMP280;27866;48.146;17.098;2024-02-28T19:17:34;99997.81;;;14.29
42197;BMP280;27866;48.146;17.098;2024-02-28T19:21:45;99999.56;;;14.28
42197;BMP280;27866;48.146;17.098;2024-02-28T19:25:59;99984.19;;;14.25
42197;BMP280;27866;48.146;17.098;2024-02-28T19:30:10;99996.03;;;14.29
42197;BMP280;27866;48.146;17.098;2024-02-28T19:34:22;99993.44;;;14.29
42197;BMP280;27866;48.146;17.098;2024-02-28T19:38:34;99994.38;;;14.28
42197;BMP280;27866;48.146;17.098;2024-02-28T19:42:45;99991.53;;;14.31
42197;BMP280;27866;48.146;17.098;2024-02-28T19:46:57;99993.78;;;14.35
42197;BMP280;27866;48.146;17.098;2024-02-28T19:51:09;99997.91;;;14.38
42197;BMP280;27866;48.146;17.098;2024-02-28T19:55:21;99995.06;;;14.41
42197;BMP280;27866;48.146;17.098;2024-02-28T19:59:33;100005.22;;;14.44
42197;BMP280;27866;48.146;17.098;2024-02-28T20:03:45;100001.56;;;14.46
42197;BMP280;27866;48.146;17.098;2024-02-28T20:07:57;99995.38;;;14.47
42197;BMP280;27866;48.146;17.098;2024-02-28T20:12:09;100009.72;;;14.52
42197;BMP280;27866;48.146;17.098;2024-02-28T20:16:21;100014.81;;;14.54
42197;BMP280;27866;48.146;17.098;2024-02-28T20:20:33;100008.75;;;14.53
42197;BMP280;27866;48.146;17.098;2024-02-28T20:24:44;100014.69;;;14.55
42197;BMP280;27866;48.146;17.098;2024-02-28T20:28:56;100012.06;;;14.55
42197;BMP280;27866;48.146;17.098;2024-02-28T20:33:08;100006.03;;;14.55
42197;BMP280;27866;48.146;17.098;2024-02-28T20:37:19;100016.34;;;14.56
42197;BMP280;27866;48.146;17.098;2024-02-28T20:41:32;100008.41;;;14.58
42197;BMP280;27866;48.146;17.098;2024-02-28T20:45:46;100008.41;;;14.58
42197;BMP280;27866;48.146;17.098;2024-02-28T20:49:58;100020.59;;;14.57
42197;BMP280;27866;48.146;17.098;2024-02-28T20:54:09;100016.44;;;14.55
42197;BMP280;27866;48.146;17.098;2024-02-28T20:58:23;100013.97;;;14.53
42197;BMP280;27866;48.146;17.098;2024-02-28T21:02:34;100023.47;;;14.54
42197;BMP280;27866;48.146;17.098;2024-02-28T21:06:46;100013.03;;;14.54
42197;BMP280;27866;48.146;17.098;2024-02-28T21:10:58;100005.94;;;14.56
42197;BMP280;27866;48.146;17.098;2024-02-28T21:15:10;99996.31;;;14.57
42197;BMP280;27866;48.146;17.098;2024-02-28T21:19:21;100007.56;;;14.57
42197;BMP280;27866;48.146;17.098;2024-02-28T21:23:33;100018.00;;;14.57
42197;BMP280;27866;48.146;17.098;2024-02-28T21:27:45;100008.53;;;14.56
42197;BMP280;27866;48.146;17.098;2024-02-28T21:31:56;100019.91;;;14.55
42197;BMP280;27866;48.146;17.098;2024-02-28T21:36:08;100016.84;;;14.50
42197;BMP280;27866;48.146;17.098;2024-02-28T21:40:19;100023.94;;;14.49
42197;BMP280;27866;48.146;17.098;2024-02-28T21:44:34;100023.94;;;14.49
42197;BMP280;27866;48.146;17.098;2024-02-28T21:48:46;100023.25;;;14.47
42197;BMP280;27866;48.146;17.098;2024-02-28T21:52:57;100025.94;;;14.45
42197;BMP280;27866;48.146;17.098;2024-02-28T21:57:10;100027.75;;;14.45
42197;BMP280;27866;48.146;17.098;2024-02-28T22:01:21;100019.81;;;14.46
42197;BMP280;27866;48.146;17.098;2024-02-28T22:05:33;100029.38;;;14.46
42197;BMP280;27866;48.146;17.098;2024-02-28T22:09:44;100022.53;;;14.45
42197;BMP280;27866;48.146;17.098;2024-02-28T22:13:56;100018.75;;;14.38
42197;BMP280;27866;48.146;17.098;2024-02-28T22:18:07;100015.69;;;14.33
42197;BMP280;27866;48.146;17.098;2024-02-28T22:22:19;100021.38;;;14.27
42197;BMP280;27866;48.146;17.098;2024-02-28T22:26:30;100013.13;;;14.22
42197;BMP280;27866;48.146;17.098;2024-02-28T22:30:42;100010.72;;;14.20
42197;BMP280;27866;48.146;17.098;2024-02-28T22:34:53;100011.00;;;14.17
42197;BMP280;27866;48.146;17.098;2024-02-28T22:39:05;100010.50;;;14.12
42197;BMP280;27866;48.146;17.098;2024-02-28T22:43:17;100014.28;;;14.08
42197;BMP280;27866;48.146;17.098;2024-02-28T22:47:29;100013.47;;;14.07
42197;BMP280;27866;48.146;17.098;2024-02-28T22:51:41;100004.00;;;14.06
42197;BMP280;27866;48.146;17.098;2024-02-28T22:55:52;100024.81;;;14.17
42197;BMP280;27866;48.146;17.098;2024-02-28T23:00:05;100022.09;;;14.29
42197;BMP280;27866;48.146;17.098;2024-02-28T23:04:46;100027.41;;;14.38
42197;BMP280;27866;48.146;17.098;2024-02-28T23:08:58;100030.81;;;14.49
42197;BMP280;27866;48.146;17.098;2024-02-28T23:13:09;100032.97;;;14.45
42197;BMP280;27866;48.146;17.098;2024-02-28T23:17:20;100038.88;;;14.47
42197;BMP280;27866;48.146;17.098;2024-02-28T23:21:36;100031.16;;;14.45
42197;BMP280;27866;48.146;17.098;2024-02-28T23:25:50;100021.13;;;14.30
42197;BMP280;27866;48.146;17.098;2024-02-28T23:30:02;100025.78;;;14.16
42197;BMP280;27866;48.146;17.098;2024-02-28T23:34:17;100019.25;;;14.00
42197;BMP280;27866;48.146;17.098;2024-02-28T23:38:28;100017.50;;;13.90
42197;BMP280;27866;48.146;17.098;2024-02-28T23:42:40;100018.91;;;13.83
42197;BMP280;27866;48.146;17.098;2024-02-28T23:46:51;100022.09;;;13.76